Time;durP1;ratioP1;P1;durP2;ratioP2;P2;SDS_P1;SDS_P2;PMS_P1;PMS_P2;Temp;Humidity;BMP_temperature;BMP_pressure;BME280_temperature;BME280_humidity;BME280_pressure;Samples;Min_cycle;Max_cycle;Signal;HPM_P1;HPM_P2
2023/10/19 00:00:21;;;;;;;5.45;4.50;;;;;;;;;;5091003;28;20051;-59
2023/10/19 00:02:52;;;;;;;5.10;3.83;;;;;;;;;;5085437;28;20036;-59
2023/10/19 00:05:19;;;;;;;4.05;3.08;;;;;;;;;;5101217;28;20047;-58
2023/10/19 00:07:46;;;;;;;4.78;3.00;;;;;;;;;;5107349;28;20055;-58
2023/10/19 00:10:16;;;;;;;3.13;2.67;;;;;;;;;;5109391;28;20043;-59
2023/10/19 00:12:43;;;;;;;;;;;;;;;;;;5108455;28;20513;-59
2023/10/19 00:15:11;;;;;;;3.45;2.72;;;;;;;;;;5087153;28;19918;-59
2023/10/19 00:17:38;;;;;;;5.55;2.72;;;;;;;;;;5096930;28;20048;-59
2023/10/19 00:22:52;;;;;;;2.95;2.35;;;;;;;;;;5106482;28;20040;-58
2023/10/19 00:25:18;;;;;;;3.90;2.88;;;;;;;;;;5107057;28;20059;-59
2023/10/19 00:27:45;;;;;;;3.30;2.28;;;;;;;;;;5107946;28;20035;-59
2023/10/19 00:30:12;;;;;;;2.78;1.92;;;;;;;;;;5091137;28;20101;-60
2023/10/19 00:32:38;;;;;;;3.50;2.20;;;;;;;;;;5106323;28;20051;-59
2023/10/19 00:35:25;;;;;;;5.95;2.83;;;;;;;;;;5067833;28;20040;-59
2023/10/19 00:37:52;;;;;;;3.22;2.10;;;;;;;;;;5103119;28;20036;-58
2023/10/19 00:40:34;;;;;;;6.50;2.28;;;;;;;;;;5089568;28;20415;-59
2023/10/19 00:43:10;;;;;;;3.30;2.15;;;;;;;;;;5084046;28;20570;-59
2023/10/19 00:45:39;;;;;;;3.63;2.20;;;;;;;;;;5106552;28;20043;-59
2023/10/19 00:48:08;;;;;;;;;;;;;;;;;;5107560;28;20044;-59
2023/10/19 00:50:35;;;;;;;5.60;2.50;;;;;;;;;;5089937;28;19911;-59
2023/10/19 00:53:07;;;;;;;5.63;2.83;;;;;;;;;;5084807;27;20042;-59
2023/10/19 00:55:34;;;;;;;5.20;2.70;;;;;;;;;;5102408;28;20032;-59
2023/10/19 00:58:09;;;;;;;4.95;2.50;;;;;;;;;;5088405;28;21552;-59
2023/10/19 01:00:43;;;;;;;5.18;2.78;;;;;;;;;;5085344;28;20340;-59
2023/10/19 01:03:16;;;;;;;3.97;2.70;;;;;;;;;;5105225;27;20031;-59
2023/10/19 01:05:48;;;;;;;6.70;3.72;;;;;;;;;;5104348;28;20035;-58
2023/10/19 01:08:24;;;;;;;6.88;2.80;;;;;;;;;;5098408;28;20032;-58
2023/10/19 01:10:52;;;;;;;5.32;3.05;;;;;;;;;;5106903;28;20055;-59
2023/10/19 01:13:26;;;;;;;7.93;3.10;;;;;;;;;;5101585;28;20039;-58
2023/10/19 01:15:54;;;;;;;4.57;2.80;;;;;;;;;;5078889;28;20078;-58
2023/10/19 01:18:21;;;;;;;4.22;2.63;;;;;;;;;;5076628;28;20036;-59
2023/10/19 01:20:55;;;;;;;5.22;2.63;;;;;;;;;;5107060;28;20050;-59
2023/10/19 01:23:22;;;;;;;6.47;2.97;;;;;;;;;;5107566;28;20047;-59
2023/10/19 01:31:08;;;;;;;5.43;2.88;;;;;;;;;;5109999;27;20031;-58
2023/10/19 01:33:34;;;;;;;7.50;3.78;;;;;;;;;;5104941;28;20047;-60
2023/10/19 01:38:47;;;;;;;6.70;2.80;;;;;;;;;;5104175;28;20039;-59
2023/10/19 01:41:15;;;;;;;6.70;3.08;;;;;;;;;;5107052;28;21557;-60
2023/10/19 01:43:48;;;;;;;6.00;3.13;;;;;;;;;;5103930;28;20039;-60
2023/10/19 01:46:21;;;;;;;6.53;3.17;;;;;;;;;;5088723;28;20031;-59
2023/10/19 01:48:53;;;;;;;6.45;3.20;;;;;;;;;;5106154;28;20028;-58
2023/10/19 01:51:20;;;;;;;4.15;3.00;;;;;;;;;;5088202;28;20031;-59
2023/10/19 01:53:47;;;;;;;5.57;2.95;;;;;;;;;;5105601;28;20400;-60
2023/10/19 01:56:15;;;;;;;5.05;2.95;;;;;;;;;;5067751;28;20036;-59
2023/10/19 01:58:43;;;;;;;5.82;2.92;;;;;;;;;;5083027;28;20412;-60
2023/10/19 02:03:42;;;;;;;3.75;2.60;;;;;;;;;;5079022;28;20043;-59
2023/10/19 02:06:20;;;;;;;;;;;;;;;;;;5088074;28;20039;-59
2023/10/19 02:08:50;;;;;;;5.70;2.40;;;;;;;;;;5080870;28;19911;-58
2023/10/19 02:11:21;;;;;;;4.70;2.83;;;;;;;;;;5101113;28;20680;-57
2023/10/19 02:13:49;;;;;;;5.28;2.63;;;;;;;;;;5080337;28;20043;-58
2023/10/19 02:16:23;;;;;;;5.43;2.65;;;;;;;;;;5088649;28;20040;-58
2023/10/19 02:18:52;;;;;;;4.40;2.60;;;;;;;;;;5072052;28;20040;-59
2023/10/19 02:21:22;;;;;;;4.88;2.63;;;;;;;;;;5110392;28;20051;-59
2023/10/19 02:23:50;;;;;;;5.40;2.42;;;;;;;;;;5109721;28;20341;-59
2023/10/19 02:26:19;;;;;;;4.60;2.88;;;;;;;;;;5091780;28;20495;-59
2023/10/19 02:28:47;;;;;;;7.30;3.38;;;;;;;;;;5107661;28;20044;-58
2023/10/19 02:31:18;;;;;;;6.93;2.63;;;;;;;;;;5110687;27;20501;-58
2023/10/19 02:33:45;;;;;;;5.70;2.80;;;;;;;;;;5089147;27;20043;-58
2023/10/19 02:36:15;;;;;;;6.10;2.60;;;;;;;;;;5110218;28;20051;-58
2023/10/19 02:38:44;;;;;;;5.68;2.95;;;;;;;;;;5113805;27;20052;-59
2023/10/19 02:41:10;;;;;;;5.95;3.08;;;;;;;;;;5100918;27;20035;-59
2023/10/19 02:43:38;;;;;;;6.28;2.50;;;;;;;;;;5111176;27;20055;-59
2023/10/19 02:46:04;;;;;;;7.63;2.80;;;;;;;;;;5105930;28;20406;-59
2023/10/19 02:48:31;;;;;;;4.68;2.35;;;;;;;;;;5109306;28;20034;-58
2023/10/19 02:51:05;;;;;;;6.63;2.65;;;;;;;;;;5092119;28;20034;-59
2023/10/19 02:53:32;;;;;;;4.38;2.60;;;;;;;;;;5091756;28;20047;-58
2023/10/19 02:56:01;;;;;;;3.95;2.72;;;;;;;;;;5109194;28;20036;-58
2023/10/19 02:58:28;;;;;;;4.75;2.42;;;;;;;;;;5104797;27;20046;-59
2023/10/19 03:00:55;;;;;;;6.20;2.78;;;;;;;;;;5109811;27;20059;-59
2023/10/19 03:03:21;;;;;;;7.22;2.78;;;;;;;;;;5091780;28;20043;-59
2023/10/19 03:05:47;;;;;;;6.32;2.80;;;;;;;;;;5108029;28;20509;-58
2023/10/19 03:08:15;;;;;;;5.25;2.58;;;;;;;;;;5106846;28;20076;-58
2023/10/19 03:10:44;;;;;;;4.43;2.22;;;;;;;;;;5084522;28;20423;-58
2023/10/19 03:13:14;;;;;;;6.70;2.40;;;;;;;;;;5109916;27;20059;-57
2023/10/19 03:15:42;;;;;;;5.35;2.40;;;;;;;;;;5108645;28;20042;-59
2023/10/19 03:18:08;;;;;;;5.70;2.90;;;;;;;;;;5108587;28;20047;-58
2023/10/19 03:20:38;;;;;;;4.00;2.55;;;;;;;;;;5092486;28;20043;-59
2023/10/19 03:23:04;;;;;;;7.00;2.63;;;;;;;;;;5089696;28;20415;-59
2023/10/19 03:28:17;;;;;;;4.35;2.35;;;;;;;;;;5108406;28;20070;-59
2023/10/19 03:30:43;;;;;;;4.80;2.42;;;;;;;;;;5092617;28;20028;-58
2023/10/19 03:33:10;;;;;;;6.38;2.70;;;;;;;;;;5108837;27;20050;-57
2023/10/19 03:35:38;;;;;;;5.82;2.42;;;;;;;;;;5087839;28;20046;-58
2023/10/19 03:38:18;;;;;;;4.75;2.90;;;;;;;;;;5087723;28;20035;-58
2023/10/19 03:40:51;;;;;;;6.47;3.15;;;;;;;;;;5110262;27;20470;-58
2023/10/19 03:43:21;;;;;;;4.80;3.30;;;;;;;;;;5101504;27;20036;-59
2023/10/19 03:45:52;;;;;;;5.40;3.25;;;;;;;;;;5089501;28;20499;-58
2023/10/19 03:48:34;;;;;;;5.60;3.70;;;;;;;;;;5086340;28;20043;-57
2023/10/19 03:51:02;;;;;;;11.40;6.55;;;;;;;;;;5073525;28;20044;-59
2023/10/19 03:53:28;;;;;;;13.70;9.82;;;;;;;;;;5084263;28;20051;-59
2023/10/19 03:55:55;;;;;;;16.10;10.73;;;;;;;;;;5089948;28;20058;-59
2023/10/19 03:58:21;;;;;;;16.20;11.25;;;;;;;;;;5108638;27;20062;-58
2023/10/19 04:00:49;;;;;;;16.10;11.60;;;;;;;;;;5109030;27;20055;-59
2023/10/19 04:03:17;;;;;;;16.58;11.60;;;;;;;;;;5107002;28;20048;-60
2023/10/19 04:05:46;;;;;;;18.35;12.23;;;;;;;;;;5107208;28;20035;-59
2023/10/19 04:08:20;;;;;;;19.08;12.77;;;;;;;;;;5106487;27;20027;-58
2023/10/19 04:11:07;;;;;;;16.38;11.52;;;;;;;;;;5106664;28;20047;-58
2023/10/19 04:13:33;;;;;;;15.70;11.65;;;;;;;;;;5105422;27;20043;-59
2023/10/19 04:15:59;;;;;;;15.77;11.18;;;;;;;;;;5105577;28;20071;-59
2023/10/19 04:18:25;;;;;;;17.08;11.93;;;;;;;;;;5108247;28;20059;-58
2023/10/19 04:20:55;;;;;;;;;;;;;;;;;;;;;
2023/10/19 04:23:26;;;;;;;20.55;14.07;;;;;;;;;;5090061;28;20039;-59
2023/10/19 04:25:56;;;;;;;21.13;13.60;;;;;;;;;;5107820;27;20054;-60
2023/10/19 04:28:30;;;;;;;21.05;14.73;;;;;;;;;;5108715;28;20023;-59
2023/10/19 04:31:06;;;;;;;21.08;13.95;;;;;;;;;;5108768;27;20448;-59
2023/10/19 04:33:34;;;;;;;21.05;14.27;;;;;;;;;;5107723;28;20031;-58
2023/10/19 04:36:00;;;;;;;21.20;13.80;;;;;;;;;;5106344;28;20503;-59
2023/10/19 04:38:27;;;;;;;22.55;12.50;;;;;;;;;;5113248;27;20044;-58
2023/10/19 04:40:53;;;;;;;17.63;12.60;;;;;;;;;;5085093;28;20054;-58
2023/10/19 04:43:21;;;;;;;21.35;14.88;;;;;;;;;;5086018;28;20059;-59
2023/10/19 04:45:47;;;;;;;23.05;14.73;;;;;;;;;;5108725;27;20047;-58
2023/10/19 04:48:13;;;;;;;18.50;13.27;;;;;;;;;;5100562;28;20043;-60
2023/10/19 04:50:39;;;;;;;16.77;11.35;;;;;;;;;;5104554;28;20514;-59
2023/10/19 04:53:05;;;;;;;24.00;14.80;;;;;;;;;;5107095;27;20040;-58
2023/10/19 04:55:32;;;;;;;19.98;11.98;;;;;;;;;;5088768;28;20589;-59
2023/10/19 04:57:58;;;;;;;12.95;8.38;;;;;;;;;;5106310;28;20034;-59
2023/10/19 05:00:24;;;;;;;15.63;9.85;;;;;;;;;;5103246;28;20055;-60
2023/10/19 05:02:51;;;;;;;14.15;8.52;;;;;;;;;;5104864;28;20039;-58
2023/10/19 05:05:18;;;;;;;16.27;8.93;;;;;;;;;;5105847;28;20043;-58
2023/10/19 05:07:44;;;;;;;7.20;4.80;;;;;;;;;;5106728;28;20038;-57
2023/10/19 05:10:11;;;;;;;11.85;7.07;;;;;;;;;;5106312;28;20035;-58
2023/10/19 05:12:37;;;;;;;6.50;4.47;;;;;;;;;;5106543;27;20521;-58
2023/10/19 05:15:05;;;;;;;9.07;5.80;;;;;;;;;;5104213;28;20048;-58
2023/10/19 05:17:31;;;;;;;10.90;4.68;;;;;;;;;;5106612;28;20035;-59
2023/10/19 05:19:57;;;;;;;4.72;2.80;;;;;;;;;;5106332;28;20034;-58
2023/10/19 05:22:24;;;;;;;5.47;3.20;;;;;;;;;;5107558;28;20028;-59
2023/10/19 05:24:51;;;;;;;3.70;2.72;;;;;;;;;;5105108;28;20035;-58
2023/10/19 05:27:17;;;;;;;3.33;2.00;;;;;;;;;;5106998;28;20023;-57
2023/10/19 05:29:43;;;;;;;4.45;2.40;;;;;;;;;;5105203;28;20036;-59
2023/10/19 05:32:09;;;;;;;3.47;2.30;;;;;;;;;;5105618;28;20047;-58
2023/10/19 05:34:36;;;;;;;4.35;2.22;;;;;;;;;;5106923;28;20039;-58
2023/10/19 05:37:02;;;;;;;4.07;2.50;;;;;;;;;;5106226;28;20024;-58
2023/10/19 05:39:30;;;;;;;3.97;2.40;;;;;;;;;;5087612;28;20051;-59
2023/10/19 05:42:00;;;;;;;3.35;1.88;;;;;;;;;;5106308;28;20043;-59
2023/10/19 05:44:30;;;;;;;3.70;2.90;;;;;;;;;;5107055;28;20034;-59
2023/10/19 05:46:58;;;;;;;4.18;1.83;;;;;;;;;;5106510;28;20035;-59
2023/10/19 05:49:24;;;;;;;2.88;1.90;;;;;;;;;;5106172;28;20048;-59
2023/10/19 05:51:51;;;;;;;4.70;1.70;;;;;;;;;;5087906;28;20062;-59
2023/10/19 05:54:17;;;;;;;3.13;1.80;;;;;;;;;;5106477;28;20031;-59
2023/10/19 05:56:43;;;;;;;3.72;2.25;;;;;;;;;;5106014;28;20419;-59
2023/10/19 05:59:10;;;;;;;8.00;4.05;;;;;;;;;;5098989;28;20044;-59
2023/10/19 06:01:37;;;;;;;5.38;3.10;;;;;;;;;;5098966;28;20048;-60
2023/10/19 06:04:03;;;;;;;7.75;3.80;;;;;;;;;;5104511;28;20062;-59
2023/10/19 06:06:29;;;;;;;4.97;3.83;;;;;;;;;;5087737;28;20051;-58
2023/10/19 06:08:55;;;;;;;4.30;3.13;;;;;;;;;;5105005;28;20054;-59
2023/10/19 06:11:22;;;;;;;5.65;2.88;;;;;;;;;;5106740;28;20390;-59
2023/10/19 06:13:48;;;;;;;5.78;3.50;;;;;;;;;;5107093;28;20396;-59
2023/10/19 06:16:14;;;;;;;7.15;3.42;;;;;;;;;;5106287;28;20028;-59
2023/10/19 06:18:40;;;;;;;5.25;3.08;;;;;;;;;;5104921;28;20040;-58
2023/10/19 06:21:06;;;;;;;3.20;2.83;;;;;;;;;;5105456;28;20027;-58
2023/10/19 06:23:32;;;;;;;5.78;2.58;;;;;;;;;;5105507;28;20051;-58
2023/10/19 06:25:59;;;;;;;3.60;2.22;;;;;;;;;;5105855;28;20414;-59
2023/10/19 06:28:26;;;;;;;4.03;2.00;;;;;;;;;;5106434;28;20482;-59
2023/10/19 06:30:52;;;;;;;5.20;2.15;;;;;;;;;;5085825;28;20054;-59
2023/10/19 06:33:19;;;;;;;3.55;1.80;;;;;;;;;;5103676;28;20024;-59
2023/10/19 06:35:45;;;;;;;3.03;1.60;;;;;;;;;;5103326;28;20042;-59
2023/10/19 06:38:11;;;;;;;4.47;2.17;;;;;;;;;;5104211;28;20593;-58
2023/10/19 06:40:37;;;;;;;4.13;1.80;;;;;;;;;;5102927;28;20051;-58
2023/10/19 06:43:05;;;;;;;3.33;1.80;;;;;;;;;;5105077;28;20044;-58
2023/10/19 06:45:32;;;;;;;3.42;2.25;;;;;;;;;;5087417;28;20517;-58
2023/10/19 06:47:59;;;;;;;3.35;2.13;;;;;;;;;;5086580;28;20048;-59
2023/10/19 06:50:26;;;;;;;3.42;2.30;;;;;;;;;;5104897;28;20585;-59
2023/10/19 06:52:54;;;;;;;3.50;2.40;;;;;;;;;;5099562;28;20514;-59
2023/10/19 06:55:20;;;;;;;6.63;3.67;;;;;;;;;;5104954;28;20731;-59
2023/10/19 06:57:50;;;;;;;7.25;5.18;;;;;;;;;;5103074;28;20070;-59
2023/10/19 07:00:22;;;;;;;8.15;5.40;;;;;;;;;;5104015;28;20032;-59
2023/10/19 07:02:50;;;;;;;10.35;7.07;;;;;;;;;;5104951;28;20050;-58
2023/10/19 07:05:29;;;;;;;10.43;6.72;;;;;;;;;;5104670;28;20046;-59
2023/10/19 07:07:56;;;;;;;10.23;6.40;;;;;;;;;;5106467;28;20498;-59
2023/10/19 07:10:23;;;;;;;9.60;6.78;;;;;;;;;;5110446;28;20040;-59
2023/10/19 07:12:55;;;;;;;10.57;6.95;;;;;;;;;;5110342;28;20032;-58
2023/10/19 07:15:23;;;;;;;18.83;13.00;;;;;;;;;;5108926;28;20418;-59
2023/10/19 07:17:52;;;;;;;34.25;20.15;;;;;;;;;;5108146;28;20044;-59
2023/10/19 07:20:25;;;;;;;19.87;13.37;;;;;;;;;;5092693;28;20035;-58
2023/10/19 07:22:52;;;;;;;22.13;13.60;;;;;;;;;;5108234;28;20047;-58
2023/10/19 07:25:21;;;;;;;16.48;10.23;;;;;;;;;;5103619;27;20526;-59
2023/10/19 07:27:50;;;;;;;11.10;5.97;;;;;;;;;;5107162;28;20414;-59
2023/10/19 07:30:21;;;;;;;;;;;;;;;;;;5089075;28;20047;-59
2023/10/19 07:32:59;;;;;;;7.28;2.78;;;;;;;;;;5109007;28;19919;-59
2023/10/19 07:35:27;;;;;;;6.88;2.85;;;;;;;;;;5103549;28;20039;-59
2023/10/19 07:37:53;;;;;;;2.67;2.20;;;;;;;;;;5109298;28;20438;-58
2023/10/19 07:40:20;;;;;;;4.88;3.17;;;;;;;;;;5103647;28;20043;-59
2023/10/19 07:42:49;;;;;;;5.03;2.70;;;;;;;;;;5091579;28;20458;-58
2023/10/19 07:45:15;;;;;;;4.40;2.75;;;;;;;;;;5107092;28;20050;-59
2023/10/19 07:47:41;;;;;;;3.35;2.17;;;;;;;;;;5087705;28;20395;-59
2023/10/19 07:50:17;;;;;;;3.22;2.40;;;;;;;;;;5109360;28;20410;-58
2023/10/19 07:52:49;;;;;;;5.32;2.33;;;;;;;;;;5107532;28;20055;-58
2023/10/19 07:55:16;;;;;;;3.90;2.20;;;;;;;;;;5081394;28;20043;-59
2023/10/19 07:57:43;;;;;;;3.05;2.20;;;;;;;;;;5105451;28;20529;-58
2023/10/19 08:00:10;;;;;;;2.45;1.80;;;;;;;;;;5108046;28;20051;-59
2023/10/19 08:02:37;;;;;;;1.83;1.70;;;;;;;;;;5090639;28;20043;-59
2023/10/19 08:05:07;;;;;;;4.57;1.75;;;;;;;;;;5106164;28;20051;-58
2023/10/19 08:07:36;;;;;;;2.13;1.80;;;;;;;;;;5089503;28;20038;-59
2023/10/19 08:10:05;;;;;;;2.50;1.90;;;;;;;;;;5107408;28;20038;-59
2023/10/19 08:12:33;;;;;;;3.72;2.25;;;;;;;;;;5107833;28;20047;-60
2023/10/19 08:14:59;;;;;;;4.57;1.80;;;;;;;;;;5106028;28;20044;-58
2023/10/19 08:17:25;;;;;;;2.38;1.85;;;;;;;;;;5108228;28;20028;-58
2023/10/19 08:19:51;;;;;;;2.08;1.70;;;;;;;;;;5107740;28;20055;-58
2023/10/19 08:22:17;;;;;;;4.07;2.65;;;;;;;;;;5107773;28;20402;-58
2023/10/19 08:24:45;;;;;;;14.20;10.00;;;;;;;;;;5108313;27;20032;-58
2023/10/19 08:27:13;;;;;;;17.73;10.38;;;;;;;;;;5107447;28;20671;-59
2023/10/19 08:29:39;;;;;;;17.20;11.00;;;;;;;;;;5108736;28;20023;-59
2023/10/19 08:32:06;;;;;;;15.07;10.63;;;;;;;;;;5106077;28;20035;-59
2023/10/19 08:34:36;;;;;;;13.88;9.50;;;;;;;;;;5106932;28;20035;-59
2023/10/19 08:37:04;;;;;;;19.00;10.50;;;;;;;;;;5106772;28;20506;-59
2023/10/19 08:39:37;;;;;;;19.58;10.73;;;;;;;;;;5106098;28;20036;-59
2023/10/19 08:42:04;;;;;;;19.35;10.43;;;;;;;;;;5107349;28;20051;-59
2023/10/19 08:44:30;;;;;;;15.77;9.30;;;;;;;;;;5106121;28;20055;-59
2023/10/19 08:46:57;;;;;;;12.25;9.27;;;;;;;;;;5106163;28;20043;-59
2023/10/19 08:49:24;;;;;;;15.82;10.20;;;;;;;;;;5089059;28;20526;-59
2023/10/19 08:51:51;;;;;;;12.82;9.27;;;;;;;;;;5104082;28;20036;-59
2023/10/19 08:54:17;;;;;;;14.10;8.73;;;;;;;;;;5097096;28;20024;-59
2023/10/19 08:56:44;;;;;;;13.93;8.48;;;;;;;;;;5104818;28;20039;-59
2023/10/19 08:59:11;;;;;;;12.80;8.07;;;;;;;;;;5107009;28;20036;-59
2023/10/19 09:01:37;;;;;;;14.10;7.97;;;;;;;;;;5089354;28;20051;-58
2023/10/19 09:04:07;;;;;;;9.85;7.63;;;;;;;;;;5104013;28;20051;-58
2023/10/19 09:06:41;;;;;;;10.27;7.10;;;;;;;;;;5089223;28;20407;-58
2023/10/19 09:09:16;;;;;;;10.55;7.18;;;;;;;;;;5101517;27;20046;-59
2023/10/19 09:11:43;;;;;;;8.05;6.22;;;;;;;;;;5106768;28;20048;-59
2023/10/19 09:14:12;;;;;;;10.50;6.63;;;;;;;;;;5106631;28;20046;-58
2023/10/19 09:16:57;;;;;;;10.60;7.20;;;;;;;;;;5106686;27;20668;-58
2023/10/19 09:19:47;;;;;;;9.15;6.93;;;;;;;;;;5103086;28;20032;-58
2023/10/19 09:22:18;;;;;;;13.50;8.40;;;;;;;;;;5106301;28;20046;-58
2023/10/19 09:24:45;;;;;;;14.27;8.43;;;;;;;;;;5106792;28;20041;-59
2023/10/19 09:27:12;;;;;;;9.50;7.22;;;;;;;;;;5106483;28;20038;-58
2023/10/19 09:29:40;;;;;;;9.85;6.88;;;;;;;;;;5106713;27;20043;-59
2023/10/19 09:32:07;;;;;;;9.63;6.68;;;;;;;;;;5102613;28;20487;-59
2023/10/19 09:34:35;;;;;;;9.45;6.75;;;;;;;;;;5105536;28;20047;-58
2023/10/19 09:37:04;;;;;;;12.65;8.55;;;;;;;;;;5106291;28;20518;-59
2023/10/19 09:39:34;;;;;;;11.95;8.07;;;;;;;;;;5103192;28;20521;-58
2023/10/19 09:42:10;;;;;;;8.73;6.93;;;;;;;;;;5106325;28;20102;-58
2023/10/19 09:44:45;;;;;;;8.75;6.82;;;;;;;;;;5106665;28;20036;-58
2023/10/19 09:47:17;;;;;;;8.85;6.30;;;;;;;;;;5103052;28;20051;-59
2023/10/19 09:49:44;;;;;;;9.90;6.55;;;;;;;;;;5098888;28;20027;-59
2023/10/19 09:52:13;;;;;;;9.68;7.07;;;;;;;;;;5107328;28;20058;-59
2023/10/19 09:55:10;;;;;;;11.30;7.55;;;;;;;;;;5106732;28;20036;-59
2023/10/19 09:58:02;;;;;;;11.65;7.68;;;;;;;;;;5100892;28;20051;-59
2023/10/19 10:00:31;;;;;;;20.85;8.65;;;;;;;;;;5102384;28;20027;-58
2023/10/19 10:02:57;;;;;;;15.43;7.82;;;;;;;;;;5105434;28;20047;-58
2023/10/19 10:05:42;;;;;;;19.27;8.70;;;;;;;;;;5105258;28;20548;-59
2023/10/19 10:08:17;;;;;;;13.40;8.43;;;;;;;;;;5107863;28;20031;-60
2023/10/19 10:10:47;;;;;;;11.77;8.07;;;;;;;;;;5088061;28;20126;-59
2023/10/19 10:13:32;;;;;;;12.45;8.13;;;;;;;;;;5106636;28;20027;-59
2023/10/19 10:16:00;;;;;;;18.48;8.35;;;;;;;;;;5106720;28;20031;-59
2023/10/19 10:18:29;;;;;;;14.02;8.10;;;;;;;;;;5101812;28;20047;-59
2023/10/19 10:21:23;;;;;;;12.95;7.60;;;;;;;;;;5087837;28;20057;-58
2023/10/19 10:23:57;;;;;;;15.02;9.35;;;;;;;;;;5101579;28;20043;-58
2023/10/19 10:26:25;;;;;;;15.82;9.48;;;;;;;;;;5105347;28;20043;-59
2023/10/19 10:29:22;;;;;;;17.95;10.05;;;;;;;;;;5105041;28;20042;-58
2023/10/19 10:31:52;;;;;;;15.60;11.00;;;;;;;;;;5107259;28;20038;-58
2023/10/19 10:34:37;;;;;;;14.60;11.13;;;;;;;;;;5082850;28;20035;-61
2023/10/19 10:37:10;;;;;;;14.00;10.32;;;;;;;;;;5104768;28;20035;-59
2023/10/19 10:39:39;;;;;;;15.48;10.65;;;;;;;;;;5105446;28;20028;-58
2023/10/19 10:42:07;;;;;;;16.88;9.95;;;;;;;;;;5091511;28;20047;-59
2023/10/19 10:44:40;;;;;;;14.60;9.43;;;;;;;;;;5104674;28;20031;-58
2023/10/19 10:47:16;;;;;;;16.73;10.20;;;;;;;;;;5105555;28;20039;-59
2023/10/19 10:49:58;;;;;;;14.88;10.25;;;;;;;;;;5066640;28;20499;-59
2023/10/19 10:52:34;;;;;;;13.57;10.43;;;;;;;;;;5110088;28;20410;-58
2023/10/19 10:55:14;;;;;;;13.07;9.68;;;;;;;;;;5089523;28;20053;-58
2023/10/19 10:57:41;;;;;;;14.77;9.48;;;;;;;;;;5109742;28;20032;-59
2023/10/19 11:00:15;;;;;;;15.30;9.50;;;;;;;;;;5107299;28;20044;-59
2023/10/19 11:02:47;;;;;;;15.75;11.25;;;;;;;;;;5109658;28;20043;-59
2023/10/19 11:05:15;;;;;;;15.02;10.30;;;;;;;;;;5107750;28;20046;-58
2023/10/19 11:08:02;;;;;;;13.45;9.32;;;;;;;;;;5106831;28;20421;-59
2023/10/19 11:10:30;;;;;;;13.63;8.57;;;;;;;;;;5110597;28;20019;-59
2023/10/19 11:13:02;;;;;;;11.98;8.57;;;;;;;;;;5109991;28;20028;-58
2023/10/19 11:15:28;;;;;;;12.98;8.55;;;;;;;;;;5087311;28;20032;-59
2023/10/19 11:17:54;;;;;;;12.68;8.82;;;;;;;;;;5107881;28;20051;-59
2023/10/19 11:20:25;;;;;;;10.30;8.18;;;;;;;;;;5108937;28;20047;-59
2023/10/19 11:22:53;;;;;;;11.40;7.78;;;;;;;;;;5109003;28;20051;-59
2023/10/19 11:25:31;;;;;;;9.43;8.25;;;;;;;;;;5108189;27;20440;-59
2023/10/19 11:27:59;;;;;;;11.02;6.85;;;;;;;;;;5107620;28;20058;-59
2023/10/19 11:30:27;;;;;;;10.60;8.35;;;;;;;;;;5109805;28;20024;-59
2023/10/19 11:32:58;;;;;;;14.13;8.48;;;;;;;;;;5108842;28;20042;-59
2023/10/19 11:35:25;;;;;;;11.52;8.20;;;;;;;;;;5106620;28;20050;-59
2023/10/19 11:37:56;;;;;;;12.10;8.70;;;;;;;;;;5107782;28;20043;-59
2023/10/19 11:40:23;;;;;;;11.80;8.30;;;;;;;;;;5086832;28;20039;-59
2023/10/19 11:42:50;;;;;;;16.80;11.25;;;;;;;;;;5104961;28;20410;-58
2023/10/19 11:45:17;;;;;;;28.65;16.77;;;;;;;;;;5100242;28;20411;-59
2023/10/19 11:47:44;;;;;;;33.65;17.65;;;;;;;;;;5106136;28;20031;-59
2023/10/19 11:50:17;;;;;;;17.90;12.45;;;;;;;;;;5108339;28;20051;-58
2023/10/19 11:52:48;;;;;;;12.23;8.60;;;;;;;;;;5109469;28;20102;-59
2023/10/19 11:55:15;;;;;;;14.45;10.05;;;;;;;;;;5107621;28;20070;-58
2023/10/19 11:57:44;;;;;;;16.17;9.07;;;;;;;;;;5107924;28;20039;-60
2023/10/19 12:00:14;;;;;;;15.13;8.90;;;;;;;;;;5108536;28;20032;-59
2023/10/19 12:02:43;;;;;;;13.18;9.23;;;;;;;;;;5108309;28;20036;-59
2023/10/19 12:05:12;;;;;;;10.18;7.20;;;;;;;;;;5113667;27;20414;-57
2023/10/19 12:07:38;;;;;;;9.80;5.93;;;;;;;;;;5108781;28;20043;-59
2023/10/19 12:10:07;;;;;;;6.63;4.32;;;;;;;;;;5108880;28;20030;-59
2023/10/19 12:12:34;;;;;;;5.30;4.22;;;;;;;;;;5107958;28;20043;-59
2023/10/19 12:15:02;;;;;;;8.18;4.32;;;;;;;;;;5087033;28;20058;-57
2023/10/19 12:17:29;;;;;;;5.45;3.83;;;;;;;;;;5119274;27;20046;-58
2023/10/19 12:19:56;;;;;;;6.15;3.03;;;;;;;;;;5108631;28;20031;-59
2023/10/19 12:22:24;;;;;;;7.07;3.13;;;;;;;;;;5107597;28;20040;-59
2023/10/19 12:24:51;;;;;;;3.53;3.13;;;;;;;;;;5083038;28;20044;-60
2023/10/19 12:27:18;;;;;;;5.93;4.30;;;;;;;;;;5089325;28;20038;-59
2023/10/19 12:29:44;;;;;;;6.68;4.05;;;;;;;;;;5107612;28;20541;-59
2023/10/19 12:32:12;;;;;;;3.63;2.90;;;;;;;;;;5107319;28;20047;-59
2023/10/19 12:34:42;;;;;;;5.20;2.08;;;;;;;;;;5103754;28;20047;-59
2023/10/19 12:37:10;;;;;;;2.88;1.80;;;;;;;;;;5105163;28;20058;-59
2023/10/19 12:39:38;;;;;;;3.20;1.88;;;;;;;;;;5103894;28;20044;-60
2023/10/19 12:42:04;;;;;;;1.95;1.50;;;;;;;;;;5102908;28;20039;-60
2023/10/19 12:44:38;;;;;;;2.53;1.98;;;;;;;;;;5059362;28;20044;-59
2023/10/19 12:47:15;;;;;;;1.92;1.67;;;;;;;;;;5106580;28;20040;-59
2023/10/19 12:49:41;;;;;;;1.90;1.40;;;;;;;;;;5107030;28;20040;-59
2023/10/19 12:52:08;;;;;;;2.17;1.80;;;;;;;;;;5107391;28;20032;-59
2023/10/19 12:54:35;;;;;;;2.22;1.70;;;;;;;;;;5088104;28;20032;-59
2023/10/19 12:57:09;;;;;;;2.53;1.70;;;;;;;;;;5106774;28;20539;-59
2023/10/19 12:59:38;;;;;;;2.72;1.63;;;;;;;;;;5103923;28;20487;-60
2023/10/19 13:02:08;;;;;;;4.65;2.13;;;;;;;;;;5100363;28;20052;-59
2023/10/19 13:04:34;;;;;;;;;;;;;;;;;;5105369;28;20036;-59
2023/10/19 13:07:02;;;;;;;1.83;1.20;;;;;;;;;;5107903;28;19911;-59
2023/10/19 13:09:32;;;;;;;1.63;1.35;;;;;;;;;;5089125;28;20039;-59
2023/10/19 13:11:59;;;;;;;2.45;1.30;;;;;;;;;;5106282;28;20043;-59
2023/10/19 13:14:28;;;;;;;3.22;1.33;;;;;;;;;;5107768;27;20041;-59
2023/10/19 13:16:54;;;;;;;1.17;1.02;;;;;;;;;;5092757;28;20031;-59
2023/10/19 13:19:25;;;;;;;1.90;1.77;;;;;;;;;;5107053;28;20042;-59
2023/10/19 13:21:51;;;;;;;1.45;0.90;;;;;;;;;;5105781;28;20047;-59
2023/10/19 13:24:20;;;;;;;1.40;1.08;;;;;;;;;;5105742;28;20040;-59
2023/10/19 13:26:50;;;;;;;3.20;1.20;;;;;;;;;;5086409;28;20051;-59
2023/10/19 13:29:17;;;;;;;1.20;1.10;;;;;;;;;;5105734;28;20042;-59
2023/10/19 13:31:49;;;;;;;1.33;1.23;;;;;;;;;;5089328;28;20027;-59
2023/10/19 13:34:17;;;;;;;2.92;1.45;;;;;;;;;;5104786;28;20048;-59
2023/10/19 13:36:46;;;;;;;3.03;1.90;;;;;;;;;;5102548;28;20485;-59
2023/10/19 13:39:16;;;;;;;4.90;2.50;;;;;;;;;;5098234;28;20035;-59
2023/10/19 13:41:44;;;;;;;2.30;1.55;;;;;;;;;;5103807;28;20158;-60
2023/10/19 13:44:11;;;;;;;2.55;1.40;;;;;;;;;;5105728;28;20475;-59
2023/10/19 13:46:37;;;;;;;1.63;1.52;;;;;;;;;;5089419;28;20032;-58
2023/10/19 13:49:05;;;;;;;1.75;1.50;;;;;;;;;;5106247;28;20038;-59
2023/10/19 13:51:31;;;;;;;1.38;1.17;;;;;;;;;;5107360;28;20050;-59
2023/10/19 13:53:57;;;;;;;1.65;1.00;;;;;;;;;;5106513;28;20699;-59
2023/10/19 13:56:23;;;;;;;1.38;1.10;;;;;;;;;;5105740;28;20047;-59
2023/10/19 13:58:51;;;;;;;1.27;0.70;;;;;;;;;;5071581;28;20032;-59
2023/10/19 14:01:18;;;;;;;1.90;1.70;;;;;;;;;;5101811;28;20629;-59
2023/10/19 14:03:44;;;;;;;1.05;0.95;;;;;;;;;;5099622;28;20039;-59
2023/10/19 14:06:14;;;;;;;2.45;1.73;;;;;;;;;;5106860;28;20040;-59
2023/10/19 14:08:40;;;;;;;;;;;;;;;;;;5105841;28;20038;-59
2023/10/19 14:11:07;;;;;;;1.45;1.35;;;;;;;;;;5106995;28;19919;-58
2023/10/19 14:13:35;;;;;;;1.35;1.10;;;;;;;;;;5107831;28;20031;-59
2023/10/19 14:16:08;;;;;;;1.10;1.00;;;;;;;;;;5110546;28;20495;-59
2023/10/19 14:18:35;;;;;;;1.63;1.23;;;;;;;;;;5080510;28;20047;-59
2023/10/19 14:21:10;;;;;;;3.97;1.95;;;;;;;;;;5110661;28;20035;-58
2023/10/19 14:23:39;;;;;;;2.15;1.65;;;;;;;;;;5108091;28;20501;-59
2023/10/19 14:26:05;;;;;;;2.67;1.60;;;;;;;;;;5110668;28;20031;-59
2023/10/19 14:28:31;;;;;;;2.72;2.20;;;;;;;;;;5090484;28;20040;-59
2023/10/19 14:30:57;;;;;;;3.80;2.10;;;;;;;;;;5110007;28;20030;-58
2023/10/19 14:33:23;;;;;;;6.80;3.30;;;;;;;;;;5109563;28;20032;-58
2023/10/19 14:35:49;;;;;;;2.80;2.30;;;;;;;;;;5088166;28;20397;-58
2023/10/19 14:38:15;;;;;;;3.10;2.80;;;;;;;;;;5104799;28;20042;-60
2023/10/19 14:40:44;;;;;;;2.90;2.35;;;;;;;;;;5108191;28;20031;-58
2023/10/19 14:43:10;;;;;;;6.68;3.22;;;;;;;;;;5110239;28;20032;-59
2023/10/19 14:45:36;;;;;;;1.40;1.23;;;;;;;;;;5110039;27;20035;-59
2023/10/19 14:48:04;;;;;;;2.60;1.08;;;;;;;;;;5108830;28;20038;-59
2023/10/19 14:50:30;;;;;;;2.10;1.10;;;;;;;;;;5109557;28;20035;-59
2023/10/19 14:52:56;;;;;;;2.38;1.10;;;;;;;;;;5109499;28;20044;-59
2023/10/19 14:55:23;;;;;;;3.53;1.60;;;;;;;;;;5108683;28;20059;-58
2023/10/19 14:57:55;;;;;;;2.55;1.92;;;;;;;;;;5109600;28;20051;-59
2023/10/19 15:03:00;;;;;;;2.15;1.50;;;;;;;;;;5106679;28;20411;-58
2023/10/19 15:05:27;;;;;;;3.15;1.80;;;;;;;;;;5107784;28;20043;-58
2023/10/19 15:07:55;;;;;;;2.42;1.40;;;;;;;;;;5109334;28;20032;-58
2023/10/19 15:10:25;;;;;;;2.25;1.40;;;;;;;;;;5109774;28;20047;-59